sensor_id;sensor_type;location;lat;lon;timestamp;pressure;altitude;pressure_sealevel;temperature;humidity
18500;BME280;9379;52.134;11.576;2022-08-18T04:57:15;100385.13;;;24.12;82.69
18500;BME280;9379;52.134;11.576;2022-08-18T04:59:55;100376.00;;;24.55;81.40
18500;BME280;9379;52.134;11.576;2022-08-18T05:02:22;100378.19;;;24.16;82.61
18500;BME280;9379;52.134;11.576;2022-08-18T05:04:52;100382.03;;;24.57;79.76
18500;BME280;9379;52.134;11.576;2022-08-18T05:07:20;100392.00;;;24.15;83.22
18500;BME280;9379;52.134;11.576;2022-08-18T05:09:50;100392.84;;;24.46;82.18
18500;BME280;9379;52.134;11.576;2022-08-18T05:12:21;100395.16;;;24.72;80.74
18500;BME280;9379;52.134;11.576;2022-08-18T05:14:51;100377.47;;;24.39;82.08
18500;BME280;9379;52.134;11.576;2022-08-18T05:17:19;100372.16;;;24.98;78.87
18500;BME280;9379;52.134;11.576;2022-08-18T05:19:51;100367.03;;;24.06;83.82
18500;BME280;9379;52.134;11.576;2022-08-18T05:22:28;100378.94;;;24.05;83.98
18500;BME280;9379;52.134;11.576;2022-08-18T05:24:56;100381.00;;;24.10;83.58
18500;BME280;9379;52.134;11.576;2022-08-18T05:27:38;100382.84;;;23.98;84.06
18500;BME280;9379;52.134;11.576;2022-08-18T05:30:08;100387.50;;;23.91;84.62
18500;BME280;9379;52.134;11.576;2022-08-18T05:32:39;100401.72;;;24.53;82.62
18500;BME280;9379;52.134;11.576;2022-08-18T05:35:10;100386.84;;;24.43;82.39
18500;BME280;9379;52.134;11.576;2022-08-18T05:37:56;100414.06;;;24.19;83.66
18500;BME280;9379;52.134;11.576;2022-08-18T05:40:35;100386.09;;;24.78;80.54
18500;BME280;9379;52.134;11.576;2022-08-18T05:43:17;100413.88;;;24.92;80.48
18500;BME280;9379;52.134;11.576;2022-08-18T05:45:44;100390.81;;;24.83;80.43
18500;BME280;9379;52.134;11.576;2022-08-18T05:48:18;100436.41;;;24.69;82.04
18500;BME280;9379;52.134;11.576;2022-08-18T05:50:49;100399.34;;;24.26;83.54
18500;BME280;9379;52.134;11.576;2022-08-18T05:53:17;100420.94;;;24.39;83.31
18500;BME280;9379;52.134;11.576;2022-08-18T05:56:05;100432.38;;;24.71;82.44
18500;BME280;9379;52.134;11.576;2022-08-18T05:58:52;100402.75;;;24.93;80.80
18500;BME280;9379;52.134;11.576;2022-08-18T06:01:26;100388.75;;;24.55;81.81
18500;BME280;9379;52.134;11.576;2022-08-18T06:03:59;100375.56;;;24.82;81.16
18500;BME280;9379;52.134;11.576;2022-08-18T06:06:29;100383.88;;;25.45;78.60
18500;BME280;9379;52.134;11.576;2022-08-18T06:09:18;100391.34;;;25.50;78.16
18500;BME280;9379;52.134;11.576;2022-08-18T06:11:48;100424.03;;;26.02;77.11
18500;BME280;9379;52.134;11.576;2022-08-18T06:14:17;100392.28;;;25.09;79.16
18500;BME280;9379;52.134;11.576;2022-08-18T06:16:57;100396.56;;;24.74;80.54
18500;BME280;9379;52.134;11.576;2022-08-18T06:19:38;100409.72;;;24.78;80.83
18500;BME280;9379;52.134;11.576;2022-08-18T06:22:16;100425.72;;;25.68;77.49
18500;BME280;9379;52.134;11.576;2022-08-18T06:24:52;100413.66;;;25.87;76.59
18500;BME280;9379;52.134;11.576;2022-08-18T06:27:29;100402.69;;;25.58;77.00
18500;BME280;9379;52.134;11.576;2022-08-18T06:30:07;100410.13;;;25.75;75.99
18500;BME280;9379;52.134;11.576;2022-08-18T06:32:52;100401.13;;;25.86;75.89
18500;BME280;9379;52.134;11.576;2022-08-18T06:35:31;100433.47;;;25.36;78.12
18500;BME280;9379;52.134;11.576;2022-08-18T06:38:10;100406.09;;;25.77;75.97
18500;BME280;9379;52.134;11.576;2022-08-18T06:41:04;100414.41;;;25.71;76.10
18500;BME280;9379;52.134;11.576;2022-08-18T06:43:40;100432.19;;;26.02;75.54
18500;BME280;9379;52.134;11.576;2022-08-18T06:46:15;100417.34;;;25.46;77.41
18500;BME280;9379;52.134;11.576;2022-08-18T06:48:49;100442.81;;;25.40;78.03
18500;BME280;9379;52.134;11.576;2022-08-18T06:51:20;100429.66;;;25.13;78.57
18500;BME280;9379;52.134;11.576;2022-08-18T06:53:57;100420.50;;;24.96;78.98
18500;BME280;9379;52.134;11.576;2022-08-18T06:56:31;100449.53;;;25.02;79.23
18500;BME280;9379;52.134;11.576;2022-08-18T06:59:14;100456.75;;;24.78;80.52
18500;BME280;9379;52.134;11.576;2022-08-18T07:01:52;100452.59;;;25.06;79.42
18500;BME280;9379;52.134;11.576;2022-08-18T07:04:38;100429.59;;;24.78;79.90
18500;BME280;9379;52.134;11.576;2022-08-18T07:10:30;100441.22;;;25.09;78.53
18500;BME280;9379;52.134;11.576;2022-08-18T07:13:23;100474.63;;;25.51;78.28
18500;BME280;9379;52.134;11.576;2022-08-18T07:15:53;100459.38;;;25.73;76.29
18500;BME280;9379;52.134;11.576;2022-08-18T07:18:24;100446.25;;;25.58;77.26
18500;BME280;9379;52.134;11.576;2022-08-18T07:20:56;100455.00;;;25.49;76.98
18500;BME280;9379;52.134;11.576;2022-08-18T07:23:32;100467.13;;;26.16;75.34
18500;BME280;9379;52.134;11.576;2022-08-18T07:26:09;100474.75;;;26.43;74.59
18500;BME280;9379;52.134;11.576;2022-08-18T07:28:43;100452.41;;;26.29;73.86
18500;BME280;9379;52.134;11.576;2022-08-18T07:34:19;100450.50;;;26.30;74.35
18500;BME280;9379;52.134;11.576;2022-08-18T07:37:00;100471.63;;;26.80;73.11
18500;BME280;9379;52.134;11.576;2022-08-18T07:39:39;100466.22;;;26.68;73.73
18500;BME280;9379;52.134;11.576;2022-08-18T07:42:36;100461.19;;;27.05;72.52
18500;BME280;9379;52.134;11.576;2022-08-18T07:45:17;100440.69;;;26.74;73.00
18500;BME280;9379;52.134;11.576;2022-08-18T07:47:55;100439.47;;;25.96;76.04
18500;BME280;9379;52.134;11.576;2022-08-18T07:50:26;100451.78;;;26.39;73.88
18500;BME280;9379;52.134;11.576;2022-08-18T07:53:06;100469.47;;;26.65;74.04
18500;BME280;9379;52.134;11.576;2022-08-18T07:55:49;100448.72;;;26.64;72.89
18500;BME280;9379;52.134;11.576;2022-08-18T07:58:24;100470.56;;;26.00;74.80
18500;BME280;9379;52.134;11.576;2022-08-18T08:00:58;100455.25;;;25.71;75.89
18500;BME280;9379;52.134;11.576;2022-08-18T08:03:39;100457.31;;;25.92;75.23
18500;BME280;9379;52.134;11.576;2022-08-18T08:06:18;100492.38;;;26.00;75.91
18500;BME280;9379;52.134;11.576;2022-08-18T08:08:56;100488.22;;;26.50;74.67
18500;BME280;9379;52.134;11.576;2022-08-18T08:11:36;100452.72;;;26.33;74.19
18500;BME280;9379;52.134;11.576;2022-08-18T08:14:16;100462.94;;;25.74;76.40
18500;BME280;9379;52.134;11.576;2022-08-18T08:16:54;100454.38;;;25.94;75.66
18500;BME280;9379;52.134;11.576;2022-08-18T08:22:34;100447.50;;;25.68;75.75
18500;BME280;9379;52.134;11.576;2022-08-18T08:25:07;100448.09;;;25.46;76.25
18500;BME280;9379;52.134;11.576;2022-08-18T08:27:46;100460.41;;;26.36;73.90
18500;BME280;9379;52.134;11.576;2022-08-18T08:30:18;100448.41;;;26.77;72.93
18500;BME280;9379;52.134;11.576;2022-08-18T08:32:57;100469.59;;;26.87;72.50
18500;BME280;9379;52.134;11.576;2022-08-18T08:35:35;100447.06;;;26.63;73.41
18500;BME280;9379;52.134;11.576;2022-08-18T08:38:17;100438.44;;;26.54;73.49
18500;BME280;9379;52.134;11.576;2022-08-18T08:40:54;100477.72;;;27.15;72.48
18500;BME280;9379;52.134;11.576;2022-08-18T08:43:26;100444.44;;;26.68;72.38
18500;BME280;9379;52.134;11.576;2022-08-18T08:46:06;100451.66;;;26.91;71.75
18500;BME280;9379;52.134;11.576;2022-08-18T08:48:42;100474.69;;;27.12;72.09
18500;BME280;9379;52.134;11.576;2022-08-18T08:51:28;100459.81;;;26.91;71.79
18500;BME280;9379;52.134;11.576;2022-08-18T08:54:04;100450.59;;;27.09;72.09
18500;BME280;9379;52.134;11.576;2022-08-18T08:56:39;100474.56;;;27.07;71.32
18500;BME280;9379;52.134;11.576;2022-08-18T08:59:10;100458.56;;;27.10;70.59
18500;BME280;9379;52.134;11.576;2022-08-18T09:01:43;100449.69;;;27.03;70.44
18500;BME280;9379;52.134;11.576;2022-08-18T09:04:21;100466.31;;;27.69;68.79
18500;BME280;9379;52.134;11.576;2022-08-18T09:07:05;100477.50;;;27.89;68.51
18500;BME280;9379;52.134;11.576;2022-08-18T09:10:04;100441.81;;;27.40;68.98
18500;BME280;9379;52.134;11.576;2022-08-18T09:12:51;100465.06;;;27.98;68.80
18500;BME280;9379;52.134;11.576;2022-08-18T09:15:43;100453.75;;;27.68;68.53
18500;BME280;9379;52.134;11.576;2022-08-18T09:18:30;100461.63;;;28.08;68.23
18500;BME280;9379;52.134;11.576;2022-08-18T09:21:26;100449.81;;;27.80;69.07
18500;BME280;9379;52.134;11.576;2022-08-18T09:24:07;100417.75;;;27.37;68.72
18500;BME280;9379;52.134;11.576;2022-08-18T09:27:11;100444.00;;;27.77;67.63
18500;BME280;9379;52.134;11.576;2022-08-18T09:29:51;100443.72;;;27.56;68.31
18500;BME280;9379;52.134;11.576;2022-08-18T09:32:54;100437.72;;;28.20;66.92
18500;BME280;9379;52.134;11.576;2022-08-18T09:38:25;100469.97;;;28.40;66.43
18500;BME280;9379;52.134;11.576;2022-08-18T09:41:15;100472.97;;;28.38;66.29
18500;BME280;9379;52.134;11.576;2022-08-18T09:44:13;100438.25;;;28.17;66.85
18500;BME280;9379;52.134;11.576;2022-08-18T09:47:04;100429.34;;;28.27;66.98
18500;BME280;9379;52.134;11.576;2022-08-18T09:49:46;100455.63;;;28.82;66.19
18500;BME280;9379;52.134;11.576;2022-08-18T09:55:51;100469.03;;;29.42;64.68
18500;BME280;9379;52.134;11.576;2022-08-18T09:58:53;100427.63;;;29.33;63.44
18500;BME280;9379;52.134;11.576;2022-08-18T10:01:46;100448.66;;;29.28;64.01
18500;BME280;9379;52.134;11.576;2022-08-18T10:04:37;100465.41;;;29.74;63.32
18500;BME280;9379;52.134;11.576;2022-08-18T10:07:20;100476.63;;;29.35;63.82
18500;BME280;9379;52.134;11.576;2022-08-18T10:10:03;100486.41;;;29.26;65.06
18500;BME280;9379;52.134;11.576;2022-08-18T10:12:59;100476.16;;;29.06;65.40
18500;BME280;9379;52.134;11.576;2022-08-18T10:15:41;100473.81;;;29.57;63.43
18500;BME280;9379;52.134;11.576;2022-08-18T10:18:33;100488.25;;;29.47;63.14
18500;BME280;9379;52.134;11.576;2022-08-18T10:21:09;100466.19;;;29.64;63.46
18500;BME280;9379;52.134;11.576;2022-08-18T10:23:58;100442.31;;;29.59;63.25
18500;BME280;9379;52.134;11.576;2022-08-18T10:29:55;100427.50;;;30.08;60.39
18500;BME280;9379;52.134;11.576;2022-08-18T10:32:37;100465.91;;;30.13;60.49
18500;BME280;9379;52.134;11.576;2022-08-18T10:38:27;100447.56;;;30.18;60.48
18500;BME280;9379;52.134;11.576;2022-08-18T10:41:22;100459.41;;;30.34;60.42
18500;BME280;9379;52.134;11.576;2022-08-18T10:43:52;100442.72;;;30.51;59.71
18500;BME280;9379;52.134;11.576;2022-08-18T10:46:22;100460.59;;;30.79;59.68
18500;BME280;9379;52.134;11.576;2022-08-18T10:49:04;100478.38;;;30.56;59.52
18500;BME280;9379;52.134;11.576;2022-08-18T10:52:04;100462.75;;;30.46;59.77
18500;BME280;9379;52.134;11.576;2022-08-18T16:55:10;100334.69;;;28.20;65.15
18500;BME280;9379;52.134;11.576;2022-08-18T16:57:40;100336.41;;;28.54;64.74
18500;BME280;9379;52.134;11.576;2022-08-18T17:00:34;100328.03;;;28.11;65.92
18500;BME280;9379;52.134;11.576;2022-08-18T17:03:18;100300.31;;;27.54;67.48
18500;BME280;9379;52.134;11.576;2022-08-18T17:06:05;100297.31;;;27.72;67.43
18500;BME280;9379;52.134;11.576;2022-08-18T17:08:33;100303.44;;;27.84;67.04
18500;BME280;9379;52.134;11.576;2022-08-18T17:11:03;100308.22;;;27.72;67.61
18500;BME280;9379;52.134;11.576;2022-08-18T17:13:32;100304.22;;;27.58;67.21
18500;BME280;9379;52.134;11.576;2022-08-18T17:15:59;100303.91;;;27.76;67.07
18500;BME280;9379;52.134;11.576;2022-08-18T17:18:27;100299.78;;;27.74;67.41
18500;BME280;9379;52.134;11.576;2022-08-18T17:20:54;100300.09;;;27.55;67.78
18500;BME280;9379;52.134;11.576;2022-08-18T17:23:21;100288.16;;;27.61;67.77
18500;BME280;9379;52.134;11.576;2022-08-18T17:25:49;100293.59;;;27.40;68.33
18500;BME280;9379;52.134;11.576;2022-08-18T17:28:19;100293.63;;;27.83;67.08
18500;BME280;9379;52.134;11.576;2022-08-18T17:30:48;100297.06;;;28.01;66.87
18500;BME280;9379;52.134;11.576;2022-08-18T17:33:21;100292.28;;;27.86;67.43
18500;BME280;9379;52.134;11.576;2022-08-18T17:35:56;100282.44;;;27.63;67.89
18500;BME280;9379;52.134;11.576;2022-08-18T17:38:29;100293.81;;;27.77;67.73
18500;BME280;9379;52.134;11.576;2022-08-18T17:40:59;100293.50;;;27.73;67.80
18500;BME280;9379;52.134;11.576;2022-08-18T17:43:30;100293.09;;;27.86;67.75
18500;BME280;9379;52.134;11.576;2022-08-18T17:46:00;100281.72;;;27.51;68.21
18500;BME280;9379;52.134;11.576;2022-08-18T17:48:31;100302.72;;;27.67;68.35
18500;BME280;9379;52.134;11.576;2022-08-18T17:51:02;100289.84;;;27.89;67.57
18500;BME280;9379;52.134;11.576;2022-08-18T17:53:47;100317.91;;;28.07;67.04
18500;BME280;9379;52.134;11.576;2022-08-18T17:56:16;100309.97;;;27.61;68.64
18500;BME280;9379;52.134;11.576;2022-08-18T17:58:49;100303.56;;;27.29;69.75
18500;BME280;9379;52.134;11.576;2022-08-18T18:01:21;100309.88;;;27.73;68.40
18500;BME280;9379;52.134;11.576;2022-08-18T18:03:50;100306.44;;;27.61;69.08
18500;BME280;9379;52.134;11.576;2022-08-18T18:06:23;100307.28;;;27.83;68.47
18500;BME280;9379;52.134;11.576;2022-08-18T18:08:56;100300.34;;;27.76;68.86
18500;BME280;9379;52.134;11.576;2022-08-18T18:11:30;100311.88;;;27.17;70.90
18500;BME280;9379;52.134;11.576;2022-08-18T18:14:00;100325.09;;;27.47;70.22
18500;BME280;9379;52.134;11.576;2022-08-18T18:16:59;100304.53;;;27.61;69.78
18500;BME280;9379;52.134;11.576;2022-08-18T18:19:26;100324.22;;;27.85;69.14
18500;BME280;9379;52.134;11.576;2022-08-18T18:22:03;100332.63;;;27.79;69.80
18500;BME280;9379;52.134;11.576;2022-08-18T18:24:35;100339.50;;;27.43;71.35
18500;BME280;9379;52.134;11.576;2022-08-18T18:27:23;100335.38;;;27.40;71.35
18500;BME280;9379;52.134;11.576;2022-08-18T18:29:57;100311.56;;;27.36;70.80
18500;BME280;9379;52.134;11.576;2022-08-18T18:32:28;100337.84;;;27.42;71.18
18500;BME280;9379;52.134;11.576;2022-08-18T18:35:09;100339.75;;;27.02;72.99
18500;BME280;9379;52.134;11.576;2022-08-18T18:37:43;100340.72;;;26.96;73.48
18500;BME280;9379;52.134;11.576;2022-08-18T18:40:26;100358.91;;;26.74;74.12
18500;BME280;9379;52.134;11.576;2022-08-18T18:42:54;100347.69;;;27.04;72.80
18500;BME280;9379;52.134;11.576;2022-08-18T18:45:27;100341.75;;;27.29;71.56
18500;BME280;9379;52.134;11.576;2022-08-18T18:48:03;100328.41;;;27.49;70.72
18500;BME280;9379;52.134;11.576;2022-08-18T18:50:39;100333.69;;;27.17;71.89
18500;BME280;9379;52.134;11.576;2022-08-18T18:53:24;100332.50;;;27.30;71.34
18500;BME280;9379;52.134;11.576;2022-08-18T18:56:06;100334.34;;;27.24;71.75
18500;BME280;9379;52.134;11.576;2022-08-18T18:58:47;100323.06;;;27.38;70.84
18500;BME280;9379;52.134;11.576;2022-08-18T19:01:28;100325.97;;;27.09;71.81
18500;BME280;9379;52.134;11.576;2022-08-18T19:04:09;100327.00;;;27.08;71.91
18500;BME280;9379;52.134;11.576;2022-08-18T19:06:47;100335.44;;;26.90;72.24
18500;BME280;9379;52.134;11.576;2022-08-18T19:09:23;100327.19;;;27.01;71.24
18500;BME280;9379;52.134;11.576;2022-08-18T19:12:04;100337.59;;;27.21;71.41
18500;BME280;9379;52.134;11.576;2022-08-18T19:14:39;100361.00;;;27.78;69.97
18500;BME280;9379;52.134;11.576;2022-08-18T19:17:11;100337.75;;;26.81;72.53
18500;BME280;9379;52.134;11.576;2022-08-18T19:19:45;100324.28;;;26.58;72.89
18500;BME280;9379;52.134;11.576;2022-08-18T19:22:19;100359.97;;;27.23;71.65
18500;BME280;9379;52.134;11.576;2022-08-18T19:24:55;100355.31;;;27.41;71.33
18500;BME280;9379;52.134;11.576;2022-08-18T19:27:32;100352.94;;;27.27;72.22
18500;BME280;9379;52.134;11.576;2022-08-18T19:30:05;100358.25;;;27.17;72.35
18500;BME280;9379;52.134;11.576;2022-08-18T19:32:53;100384.72;;;27.17;72.70
18500;BME280;9379;52.134;11.576;2022-08-18T19:35:24;100364.31;;;27.02;76.63
18500;BME280;9379;52.134;11.576;2022-08-18T19:38:17;100390.41;;;26.82;77.97
18500;BME280;9379;52.134;11.576;2022-08-18T19:41:03;100381.22;;;26.54;79.37
18500;BME280;9379;52.134;11.576;2022-08-18T19:43:51;100373.00;;;26.26;82.46
18500;BME280;9379;52.134;11.576;2022-08-18T19:46:42;100373.84;;;26.26;83.00
18500;BME280;9379;52.134;11.576;2022-08-18T19:49:59;100378.28;;;26.15;83.09
18500;BME280;9379;52.134;11.576;2022-08-18T19:56:02;100381.81;;;26.16;85.62
18500;BME280;9379;52.134;11.576;2022-08-18T19:59:09;100383.72;;;25.64;85.28
18500;BME280;9379;52.134;11.576;2022-08-18T20:01:56;100353.56;;;25.77;83.95
18500;BME280;9379;52.134;11.576;2022-08-18T20:04:41;100382.13;;;26.31;83.95
18500;BME280;9379;52.134;11.576;2022-08-18T20:07:54;100373.41;;;25.89;84.74
18500;BME280;9379;52.134;11.576;2022-08-18T20:10:47;100380.78;;;25.53;89.08
18500;BME280;9379;52.134;11.576;2022-08-18T20:13:33;100391.94;;;25.05;89.53
18500;BME280;9379;52.134;11.576;2022-08-18T20:16:26;100391.34;;;25.03;93.02
18500;BME280;9379;52.134;11.576;2022-08-18T20:18:54;100408.38;;;25.34;92.76
18500;BME280;9379;52.134;11.576;2022-08-18T20:21:31;100404.22;;;25.08;94.86
18500;BME280;9379;52.134;11.576;2022-08-18T20:24:04;100415.94;;;25.31;95.21
18500;BME280;9379;52.134;11.576;2022-08-18T20:26:42;100392.41;;;25.25;91.95
18500;BME280;9379;52.134;11.576;2022-08-18T20:29:15;100419.47;;;25.55;90.49
18500;BME280;9379;52.134;11.576;2022-08-18T20:31:51;100413.59;;;25.70;89.81
18500;BME280;9379;52.134;11.576;2022-08-18T20:34:20;100423.72;;;25.86;89.11
18500;BME280;9379;52.134;11.576;2022-08-18T20:36:49;100419.13;;;25.75;87.66
18500;BME280;9379;52.134;11.576;2022-08-18T20:39:39;100398.66;;;25.84;89.21
18500;BME280;9379;52.134;11.576;2022-08-18T20:42:07;100424.16;;;26.07;86.10
18500;BME280;9379;52.134;11.576;2022-08-18T20:44:56;100453.91;;;25.97;89.11
18500;BME280;9379;52.134;11.576;2022-08-18T20:47:46;100457.19;;;26.10;88.54
18500;BME280;9379;52.134;11.576;2022-08-18T20:53:12;100426.56;;;25.80;88.77
18500;BME280;9379;52.134;11.576;2022-08-18T20:55:52;100428.25;;;25.69;87.93
18500;BME280;9379;52.134;11.576;2022-08-18T20:58:25;100440.97;;;26.04;87.43
18500;BME280;9379;52.134;11.576;2022-08-18T21:00:57;100416.91;;;25.37;89.58
18500;BME280;9379;52.134;11.576;2022-08-18T21:03:43;100431.00;;;24.51;93.66
18500;BME280;9379;52.134;11.576;2022-08-18T21:06:13;100408.28;;;24.33;94.32
18500;BME280;9379;52.134;11.576;2022-08-18T21:08:49;100399.28;;;24.63;92.59
18500;BME280;9379;52.134;11.576;2022-08-18T21:11:24;100436.63;;;25.33;91.17
18500;BME280;9379;52.134;11.576;2022-08-18T21:13:55;100410.91;;;24.82;92.57
18500;BME280;9379;52.134;11.576;2022-08-18T21:16:32;100420.13;;;24.81;93.24
18500;BME280;9379;52.134;11.576;2022-08-18T21:19:18;100404.31;;;24.89;91.86
18500;BME280;9379;52.134;11.576;2022-08-18T21:21:54;100419.41;;;24.85;92.34
18500;BME280;9379;52.134;11.576;2022-08-18T21:24:29;100415.41;;;24.99;92.00
18500;BME280;9379;52.134;11.576;2022-08-18T21:27:05;100422.84;;;24.81;93.74
18500;BME280;9379;52.134;11.576;2022-08-18T21:29:35;100407.59;;;24.80;93.58
18500;BME280;9379;52.134;11.576;2022-08-18T21:32:09;100402.69;;;25.12;92.63
18500;BME280;9379;52.134;11.576;2022-08-18T21:34:53;100408.78;;;24.84;92.51
18500;BME280;9379;52.134;11.576;2022-08-18T21:37:32;100410.31;;;24.80;92.92
18500;BME280;9379;52.134;11.576;2022-08-18T21:40:06;100408.59;;;25.09;91.39
18500;BME280;9379;52.134;11.576;2022-08-18T21:42:50;100418.53;;;25.03;91.49
18500;BME280;9379;52.134;11.576;2022-08-18T21:45:21;100385.13;;;24.72;92.02
18500;BME280;9379;52.134;11.576;2022-08-18T21:47:55;100372.91;;;25.05;90.78
18500;BME280;9379;52.134;11.576;2022-08-18T21:50:37;100396.88;;;25.43;89.03
18500;BME280;9379;52.134;11.576;2022-08-18T21:53:18;100393.25;;;25.14;89.37
18500;BME280;9379;52.134;11.576;2022-08-18T21:55:55;100385.09;;;25.02;90.11
18500;BME280;9379;52.134;11.576;2022-08-18T21:58:28;100368.94;;;24.66;90.90
18500;BME280;9379;52.134;11.576;2022-08-18T22:01:11;100398.22;;;24.64;90.89
18500;BME280;9379;52.134;11.576;2022-08-18T22:03:54;100375.00;;;24.38;91.58
18500;BME280;9379;52.134;11.576;2022-08-18T22:06:29;100396.34;;;24.88;91.87
18500;BME280;9379;52.134;11.576;2022-08-18T22:09:12;100397.59;;;24.50;90.78
18500;BME280;9379;52.134;11.576;2022-08-18T22:12:12;100410.84;;;25.12;90.73
18500;BME280;9379;52.134;11.576;2022-08-18T22:15:07;100409.66;;;25.08;89.56
18500;BME280;9379;52.134;11.576;2022-08-18T22:17:56;100407.19;;;25.18;88.51
18500;BME280;9379;52.134;11.576;2022-08-18T22:20:53;100400.06;;;24.93;90.03
18500;BME280;9379;52.134;11.576;2022-08-18T22:23:35;100362.69;;;24.35;91.28
18500;BME280;9379;52.134;11.576;2022-08-18T22:26:23;100377.31;;;24.76;90.28
18500;BME280;9379;52.134;11.576;2022-08-18T22:29:03;100384.19;;;24.67;89.95
18500;BME280;9379;52.134;11.576;2022-08-18T22:31:40;100358.66;;;24.08;90.54
18500;BME280;9379;52.134;11.576;2022-08-18T22:34:10;100363.13;;;24.62;91.84
18500;BME280;9379;52.134;11.576;2022-08-18T22:36:40;100385.97;;;24.31;90.60
18500;BME280;9379;52.134;11.576;2022-08-18T22:39:10;100393.34;;;25.19;90.00
18500;BME280;9379;52.134;11.576;2022-08-18T22:41:39;100385.38;;;24.83;91.57
18500;BME280;9379;52.134;11.576;2022-08-18T22:44:11;100420.91;;;25.35;87.71
18500;BME280;9379;52.134;11.576;2022-08-18T22:46:40;100401.44;;;24.84;92.91
18500;BME280;9379;52.134;11.576;2022-08-18T22:49:08;100387.53;;;24.51;94.93
18500;BME280;9379;52.134;11.576;2022-08-18T22:51:38;100401.84;;;24.46;96.38
18500;BME280;9379;52.134;11.576;2022-08-18T22:54:11;100400.38;;;24.13;97.85
18500;BME280;9379;52.134;11.576;2022-08-18T22:57:12;100433.91;;;24.37;98.25
18500;BME280;9379;52.134;11.576;2022-08-18T22:59:58;100411.53;;;24.24;97.72
18500;BME280;9379;52.134;11.576;2022-08-18T23:02:40;100446.44;;;24.68;95.65
18500;BME280;9379;52.134;11.576;2022-08-18T23:05:14;100407.03;;;24.29;96.10
18500;BME280;9379;52.134;11.576;2022-08-18T23:07:47;100420.47;;;24.42;97.38
18500;BME280;9379;52.134;11.576;2022-08-18T23:10:17;100419.75;;;24.89;94.71
18500;BME280;9379;52.134;11.576;2022-08-18T23:12:53;100415.22;;;25.01;92.99
18500;BME280;9379;52.134;11.576;2022-08-18T23:15:20;100421.38;;;25.08;91.25
18500;BME280;9379;52.134;11.576;2022-08-18T23:18:04;100415.50;;;24.81;92.54
18500;BME280;9379;52.134;11.576;2022-08-18T23:20:32;100430.53;;;24.84;92.78
18500;BME280;9379;52.134;11.576;2022-08-18T23:22:59;100432.59;;;25.23;91.04
18500;BME280;9379;52.134;11.576;2022-08-18T23:25:28;100412.53;;;25.24;91.45
18500;BME280;9379;52.134;11.576;2022-08-18T23:27:59;100398.22;;;25.17;90.47
18500;BME280;9379;52.134;11.576;2022-08-18T23:30:27;100419.38;;;25.39;89.72
18500;BME280;9379;52.134;11.576;2022-08-18T23:32:55;100403.41;;;25.30;90.77
18500;BME280;9379;52.134;11.576;2022-08-18T23:35:27;100380.81;;;25.18;90.19
18500;BME280;9379;52.134;11.576;2022-08-18T23:37:57;100379.13;;;24.94;92.38
18500;BME280;9379;52.134;11.576;2022-08-18T23:40:27;100377.28;;;25.18;90.46
18500;BME280;9379;52.134;11.576;2022-08-18T23:42:57;100405.53;;;25.05;92.50
18500;BME280;9379;52.134;11.576;2022-08-18T23:45:29;100362.63;;;24.65;92.85
18500;BME280;9379;52.134;11.576;2022-08-18T23:48:02;100385.97;;;24.85;93.03
18500;BME280;9379;52.134;11.576;2022-08-18T23:50:50;100403.25;;;24.90;93.50
18500;BME280;9379;52.134;11.576;2022-08-18T23:53:39;100378.94;;;24.65;93.52
18500;BME280;9379;52.134;11.576;2022-08-18T23:56:22;100369.50;;;24.56;93.59
18500;BME280;9379;52.134;11.576;2022-08-18T23:58:57;100385.91;;;24.61;93.49
